createdAt,value
2023-04-25T00:00:03.511Z,5.9
2023-04-25T00:10:06.056Z,6
2023-04-25T00:20:07.739Z,6
2023-04-25T00:30:09.928Z,5.9
2023-04-25T00:30:31.852Z,5.9
2023-04-25T00:40:18.811Z,5.9
2023-04-25T01:00:23.795Z,5.9
2023-04-25T01:10:25.644Z,5.9
2023-04-25T01:20:27.984Z,6
2023-04-25T01:30:29.678Z,5.9
2023-04-25T01:40:31.448Z,5.9
2023-04-25T01:50:33.869Z,5.9
2023-04-25T02:00:36.301Z,6
2023-04-25T02:10:38.767Z,6
2023-04-25T02:20:41.140Z,5.9
2023-04-25T02:30:43.330Z,5.8
2023-04-25T02:40:45.854Z,5.8
2023-04-25T02:50:48.178Z,5.8
2023-04-25T03:00:50.260Z,5.7
2023-04-25T03:20:54.696Z,5.6
2023-04-25T03:30:56.797Z,5.6
2023-04-25T03:40:58.882Z,5.6
2023-04-25T03:51:00.617Z,5.6
2023-04-25T04:01:02.726Z,5.4
2023-04-25T04:11:04.743Z,5.2
2023-04-25T04:21:06.647Z,5.2
2023-04-25T04:31:08.479Z,5.1
2023-04-25T04:41:10.142Z,5.1
2023-04-25T04:51:12.247Z,5
2023-04-25T05:11:16.513Z,5
2023-04-25T05:21:18.743Z,5.3
2023-04-25T05:31:20.477Z,5.5
2023-04-25T05:41:22.384Z,5.6
2023-04-25T05:51:24.554Z,5.7
2023-04-25T06:01:27.106Z,5.7
2023-04-25T06:11:29.357Z,5.8
2023-04-25T06:21:31.466Z,6.1
2023-04-25T06:31:33.380Z,6.2
2023-04-25T06:41:35.202Z,6.3
2023-04-25T06:51:37.577Z,6.4
2023-04-25T07:01:39.361Z,6.2
2023-04-25T07:11:41.023Z,6.5
2023-04-25T07:21:42.760Z,6.8
2023-04-25T07:31:44.815Z,6.7
2023-04-25T07:41:47.345Z,6.6
2023-04-25T07:51:49.281Z,7.1
2023-04-25T08:01:51.711Z,7.3
2023-04-25T08:11:53.541Z,7.4
2023-04-25T08:21:56.164Z,8.1
2023-04-25T08:31:58.210Z,7.6
2023-04-25T08:42:00.003Z,7.6
2023-04-25T08:52:02.091Z,8.3
2023-04-25T09:02:04.377Z,8
2023-04-25T09:22:08.518Z,7.6
2023-04-25T09:32:10.700Z,8.5
2023-04-25T09:42:12.399Z,8.7
2023-04-25T09:52:14.173Z,8.4
2023-04-25T10:02:16.021Z,8.3
2023-04-25T10:12:18.070Z,8.6
2023-04-25T10:22:19.861Z,8.3
2023-04-25T10:32:22.167Z,8.1
2023-04-25T10:42:23.887Z,7.8
2023-04-25T10:52:25.656Z,8
2023-04-25T11:02:28.338Z,7.3
2023-04-25T11:12:30.511Z,7.9
2023-04-25T11:22:32.316Z,8.5
2023-04-25T11:32:34.274Z,9.2
2023-04-25T11:42:35.801Z,10.1
2023-04-25T11:52:37.654Z,9.8
2023-04-25T12:02:39.897Z,10.1
2023-04-25T12:12:41.676Z,9.8
2023-04-25T12:22:43.377Z,9.3
2023-04-25T12:32:45.209Z,9
2023-04-25T12:42:47.336Z,8.8
2023-04-25T12:52:49.733Z,9.4
2023-04-25T13:12:54.213Z,9.6
2023-04-25T13:22:56.546Z,8.4
2023-04-25T13:32:58.552Z,7.3
2023-04-25T13:43:00.680Z,7.6
2023-04-25T13:53:02.622Z,8.3
2023-04-25T14:03:05.272Z,9.5
2023-04-25T14:23:09.282Z,10.4
2023-04-25T14:33:11.260Z,9.7
2023-04-25T14:43:13.842Z,7.3
2023-04-25T14:53:15.817Z,7.6
2023-04-25T15:13:19.837Z,9
2023-04-25T15:23:22.692Z,9.5
2023-04-25T15:33:24.502Z,8.6
2023-04-25T15:43:26.583Z,7.9
2023-04-25T15:53:28.744Z,7.9
2023-04-25T16:03:32.143Z,8.3
2023-04-25T16:13:32.761Z,8.3
2023-04-25T16:23:35.387Z,9
2023-04-25T16:33:37.125Z,9.2
2023-04-25T16:43:39.587Z,8.8
2023-04-25T16:53:42.003Z,8.7
2023-04-25T17:03:43.735Z,8.6
2023-04-25T17:13:45.411Z,8.6
2023-04-25T17:23:47.046Z,8.8
2023-04-25T17:33:49.109Z,8.7
2023-04-25T17:43:51.530Z,8.3
2023-04-25T17:53:54.134Z,8.1
2023-04-25T18:03:56.293Z,7.8
2023-04-25T18:13:58.843Z,7.6
2023-04-25T18:24:01.187Z,7.6
2023-04-25T18:34:03.206Z,7.4
2023-04-25T18:44:05.157Z,7.4
2023-04-25T19:04:09.451Z,7
2023-04-25T19:14:11.347Z,6.7
2023-04-25T19:34:15.125Z,6.4
2023-04-25T19:44:17.496Z,6.1
2023-04-25T19:54:19.913Z,5.9
2023-04-25T20:04:21.751Z,5.7
2023-04-25T20:14:23.694Z,5.4
2023-04-25T20:24:26.273Z,5.2
2023-04-25T20:54:32.569Z,4.8
2023-04-25T21:04:34.962Z,4.6
2023-04-25T21:14:37.553Z,4.5
2023-04-25T21:24:39.969Z,4.3
2023-04-25T21:34:42.090Z,4.1
2023-04-25T21:44:44.682Z,4
2023-04-25T21:54:47.164Z,4
2023-04-25T22:04:49.454Z,4
2023-04-25T22:14:51.293Z,3.9
2023-04-25T22:24:53.480Z,3.8
2023-04-25T22:44:57.823Z,3.7
2023-04-25T23:05:01.998Z,3.4
2023-04-25T23:25:06.246Z,3
2023-04-25T23:45:10.335Z,2.7
